createdAt,value
2023-05-19T00:00:24.671Z,0.00
2023-05-19T00:01:24.705Z,0.00
2023-05-19T00:02:24.821Z,0.00
2023-05-19T00:03:24.817Z,0.00
2023-05-19T00:04:24.756Z,0.00
2023-05-19T00:05:24.803Z,0.00
2023-05-19T00:06:24.831Z,0.00
2023-05-19T00:07:24.885Z,0.00
2023-05-19T00:21:18.475Z,0.00
2023-05-19T00:22:18.513Z,0.00
2023-05-19T00:23:18.551Z,0.00
2023-05-19T00:24:18.591Z,0.00
2023-05-19T00:25:18.645Z,0.00
2023-05-19T00:26:18.671Z,0.00
2023-05-19T00:27:18.724Z,0.00
2023-05-19T00:28:18.737Z,0.00
2023-05-19T00:29:18.783Z,0.00
2023-05-19T00:30:18.854Z,0.00
2023-05-19T00:31:18.829Z,0.00
2023-05-19T00:32:18.862Z,0.00
2023-05-19T00:33:18.850Z,0.00
2023-05-19T00:34:18.883Z,0.00
2023-05-19T00:35:18.948Z,0.00
2023-05-19T00:36:18.982Z,0.00
2023-05-19T00:37:19.008Z,0.00
2023-05-19T00:38:19.041Z,0.00
2023-05-19T00:39:19.080Z,0.00
2023-05-19T00:40:19.125Z,0.00
2023-05-19T00:41:19.188Z,0.00
2023-05-19T00:42:19.214Z,0.00
2023-05-19T00:43:19.245Z,0.00
2023-05-19T00:44:19.262Z,0.00
2023-05-19T00:45:19.288Z,0.00
2023-05-19T00:46:19.379Z,0.00
2023-05-19T00:47:19.309Z,0.00
2023-05-19T00:48:19.338Z,0.00
2023-05-19T00:49:19.416Z,0.00
2023-05-19T00:50:19.482Z,0.00
2023-05-19T00:51:19.458Z,0.00
2023-05-19T00:52:19.489Z,0.00
2023-05-19T00:53:19.521Z,0.00
2023-05-19T00:54:19.575Z,0.00
2023-05-19T00:55:19.613Z,0.00
2023-05-19T00:56:19.644Z,0.00
2023-05-19T00:57:19.695Z,0.00
2023-05-19T00:58:19.749Z,0.00
2023-05-19T00:59:19.786Z,0.00
2023-05-19T01:00:19.820Z,0.00
2023-05-19T01:01:19.896Z,0.00
2023-05-19T01:02:19.944Z,0.00
2023-05-19T01:03:20.056Z,0.00
2023-05-19T01:04:20.028Z,0.00
2023-05-19T01:05:20.079Z,0.00
2023-05-19T01:06:20.134Z,0.00
2023-05-19T01:07:20.181Z,0.00
2023-05-19T01:08:20.211Z,0.00
2023-05-19T01:09:20.251Z,0.00
2023-05-19T01:10:20.274Z,0.00
2023-05-19T01:11:20.340Z,0.00
2023-05-19T01:12:20.376Z,0.00
2023-05-19T01:13:20.401Z,0.00
2023-05-19T01:14:20.436Z,0.00
2023-05-19T01:15:20.464Z,0.00
2023-05-19T01:16:20.540Z,0.00
2023-05-19T01:17:20.540Z,0.00
2023-05-19T01:18:20.587Z,0.00
2023-05-19T01:19:20.696Z,0.00
2023-05-19T01:20:20.662Z,0.00
2023-05-19T01:21:20.710Z,0.00
2023-05-19T01:22:20.810Z,0.00
2023-05-19T01:23:20.813Z,0.00
2023-05-19T01:24:20.843Z,0.00
2023-05-19T01:25:20.855Z,0.00
2023-05-19T01:26:20.897Z,0.00
2023-05-19T01:27:20.910Z,0.00
2023-05-19T01:28:20.874Z,0.00
2023-05-19T01:29:20.894Z,0.00
2023-05-19T01:30:20.876Z,0.00
2023-05-19T01:31:20.967Z,0.00
2023-05-19T01:32:20.957Z,0.00
2023-05-19T01:33:20.975Z,0.00
2023-05-19T01:34:20.975Z,0.00
2023-05-19T01:35:21.038Z,0.00
2023-05-19T01:36:21.021Z,0.00
2023-05-19T01:37:21.104Z,0.00
2023-05-19T01:38:21.115Z,0.00
2023-05-19T01:39:21.097Z,0.00
2023-05-19T01:40:21.094Z,0.00
2023-05-19T01:41:21.157Z,0.00
2023-05-19T01:42:21.158Z,0.00
2023-05-19T01:43:21.205Z,0.00
2023-05-19T01:44:21.271Z,0.00
2023-05-19T01:45:21.266Z,0.00
2023-05-19T01:46:21.323Z,0.00
2023-05-19T01:47:21.263Z,0.00
2023-05-19T01:48:21.250Z,0.00
2023-05-19T01:49:21.306Z,0.00
2023-05-19T01:50:22.302Z,0.00
2023-05-19T01:51:21.379Z,0.00
2023-05-19T01:52:21.381Z,0.00
2023-05-19T01:53:21.344Z,0.00
2023-05-19T01:54:21.430Z,0.00
2023-05-19T01:55:21.404Z,0.00
2023-05-19T01:56:21.469Z,0.00
2023-05-19T01:57:21.458Z,0.00
2023-05-19T01:58:21.515Z,0.00
2023-05-19T01:59:21.583Z,0.00
2023-05-19T02:00:21.682Z,0.00
2023-05-19T02:01:21.728Z,0.00
2023-05-19T02:02:21.742Z,0.00
2023-05-19T02:03:21.734Z,0.00
2023-05-19T02:04:21.819Z,0.00
2023-05-19T02:05:21.691Z,0.00
2023-05-19T02:06:21.767Z,0.00
2023-05-19T02:07:21.783Z,0.00
2023-05-19T02:08:21.749Z,0.00
2023-05-19T02:09:21.818Z,0.00
2023-05-19T02:10:21.875Z,0.00
2023-05-19T02:11:21.941Z,0.00
2023-05-19T02:12:21.998Z,0.00
2023-05-19T02:13:22.066Z,0.00
2023-05-19T02:14:22.180Z,0.00
2023-05-19T02:15:22.154Z,0.00
2023-05-19T02:16:22.201Z,0.00
2023-05-19T02:17:22.224Z,0.00
2023-05-19T02:18:22.184Z,0.00
2023-05-19T02:19:22.396Z,0.00
2023-05-19T02:20:22.345Z,0.00
2023-05-19T02:21:22.318Z,0.00
2023-05-19T02:22:22.384Z,0.00
2023-05-19T02:23:22.365Z,0.00
2023-05-19T02:24:22.440Z,0.00
2023-05-19T02:25:22.518Z,0.00
2023-05-19T02:26:22.535Z,0.00
2023-05-19T02:27:22.507Z,0.00
2023-05-19T02:28:22.581Z,0.00
2023-05-19T02:29:22.562Z,0.00
2023-05-19T02:30:22.658Z,0.00
2023-05-19T02:31:22.685Z,0.00
2023-05-19T02:32:22.645Z,0.00
2023-05-19T02:33:22.630Z,0.00
2023-05-19T02:34:22.685Z,0.00
2023-05-19T02:35:22.752Z,0.00
2023-05-19T02:36:22.837Z,0.00
2023-05-19T02:37:22.840Z,0.00
2023-05-19T02:38:22.818Z,0.00
2023-05-19T02:39:22.884Z,0.00
2023-05-19T02:40:22.960Z,0.00
2023-05-19T02:41:22.940Z,0.00
2023-05-19T02:42:23.019Z,0.00
2023-05-19T02:43:23.012Z,4.00
2023-05-19T02:44:22.995Z,4.00
2023-05-19T02:45:23.044Z,4.00
2023-05-19T02:46:23.124Z,4.00
2023-05-19T02:47:23.249Z,0.00
2023-05-19T02:48:23.272Z,4.00
2023-05-19T02:49:23.248Z,4.00
2023-05-19T02:50:23.298Z,4.00
2023-05-19T02:51:23.362Z,4.00
2023-05-19T02:52:23.441Z,8.00
2023-05-19T02:53:23.431Z,8.00
2023-05-19T02:54:23.427Z,8.00
2023-05-19T02:55:23.445Z,12.00
2023-05-19T02:56:23.451Z,12.00
2023-05-19T02:57:23.428Z,12.00
2023-05-19T02:58:23.440Z,12.00
2023-05-19T02:59:25.477Z,12.00
2023-05-19T03:00:23.435Z,16.00
2023-05-19T03:01:23.506Z,20.00
2023-05-19T03:02:23.449Z,24.00
2023-05-19T03:03:23.648Z,24.00
2023-05-19T03:04:23.501Z,28.00
2023-05-19T03:05:23.522Z,32.00
2023-05-19T03:06:23.580Z,40.00
2023-05-19T03:07:23.580Z,40.00
2023-05-19T03:08:23.586Z,44.00
2023-05-19T03:09:23.606Z,52.00
2023-05-19T03:10:23.632Z,56.00
2023-05-19T03:11:23.628Z,64.00
2023-05-19T03:12:23.638Z,72.00
2023-05-19T03:13:23.656Z,80.00
2023-05-19T03:14:23.665Z,96.00
2023-05-19T03:15:23.709Z,96.00
2023-05-19T03:16:23.772Z,120.00
2023-05-19T03:17:23.826Z,128.00
2023-05-19T03:18:23.859Z,132.00
2023-05-19T03:19:23.870Z,156.00
2023-05-19T03:20:23.835Z,168.00
2023-05-19T03:21:23.856Z,172.00
2023-05-19T03:22:23.849Z,192.00
2023-05-19T03:23:23.871Z,224.00
2023-05-19T03:24:23.855Z,224.00
2023-05-19T03:25:23.906Z,264.00
2023-05-19T03:26:23.905Z,264.00
2023-05-19T03:27:23.956Z,292.00
2023-05-19T03:28:23.970Z,344.00
2023-05-19T03:29:23.982Z,372.00
2023-05-19T03:30:23.991Z,396.00
2023-05-19T03:31:24.029Z,412.00
2023-05-19T03:32:24.148Z,476.00
2023-05-19T03:33:24.229Z,476.00
2023-05-19T03:34:24.070Z,544.00
2023-05-19T03:35:24.062Z,584.00
2023-05-19T03:36:24.203Z,620.00
2023-05-19T03:37:24.135Z,612.00
2023-05-19T03:38:24.144Z,672.00
2023-05-19T03:39:24.194Z,704.00
2023-05-19T03:40:24.236Z,796.00
2023-05-19T03:41:24.273Z,856.00
2023-05-19T03:42:24.276Z,860.00
2023-05-19T03:43:24.366Z,956.00
2023-05-19T03:44:24.406Z,1000.00
2023-05-19T03:45:24.428Z,1064.00
2023-05-19T03:46:24.515Z,1052.00
2023-05-19T03:47:24.546Z,1120.00
2023-05-19T03:48:24.541Z,1224.00
2023-05-19T03:49:24.544Z,1320.00
2023-05-19T03:50:24.571Z,1328.00
2023-05-19T03:51:24.643Z,1492.00
2023-05-19T03:52:24.708Z,1548.00
2023-05-19T03:53:24.760Z,1568.00
2023-05-19T03:54:24.797Z,1620.00
2023-05-19T03:55:24.846Z,1832.00
2023-05-19T03:56:24.920Z,1864.00
2023-05-19T03:57:24.932Z,1908.00
2023-05-19T03:58:24.972Z,2116.00
2023-05-19T03:59:24.960Z,2136.00
2023-05-19T04:00:25.061Z,2296.00
2023-05-19T04:01:25.061Z,2404.00
2023-05-19T04:02:25.269Z,2496.00
2023-05-19T04:03:25.234Z,2540.00
2023-05-19T04:04:25.348Z,2656.00
2023-05-19T04:05:25.306Z,2856.00
2023-05-19T04:06:25.383Z,2948.00
2023-05-19T04:07:25.428Z,2976.00
2023-05-19T04:08:25.404Z,3100.00
2023-05-19T04:09:25.758Z,3220.00
2023-05-19T04:10:25.407Z,3388.00
2023-05-19T04:11:25.506Z,3496.00
2023-05-19T04:12:25.512Z,3436.00
2023-05-19T04:13:25.518Z,3512.00
2023-05-19T04:14:25.497Z,3744.00
2023-05-19T04:15:25.520Z,3928.00
2023-05-19T04:16:25.589Z,3904.00
2023-05-19T04:17:25.597Z,4120.00
2023-05-19T04:18:28.249Z,4252.00
2023-05-19T04:19:25.663Z,4344.00
2023-05-19T04:20:25.699Z,4220.00
2023-05-19T04:21:25.690Z,4464.00
2023-05-19T04:22:25.668Z,4560.00
2023-05-19T04:23:25.726Z,4692.00
2023-05-19T04:24:25.726Z,4804.00
2023-05-19T04:25:25.725Z,5028.00
2023-05-19T04:26:25.789Z,4948.00
2023-05-19T04:27:25.832Z,5136.00
2023-05-19T04:28:25.844Z,5352.00
2023-05-19T04:29:25.881Z,5440.00
2023-05-19T04:30:25.870Z,5704.00
2023-05-19T04:31:25.872Z,5792.00
2023-05-19T04:32:25.997Z,5572.00
2023-05-19T04:33:25.884Z,5836.00
2023-05-19T04:34:25.913Z,6168.00
2023-05-19T04:35:25.961Z,6112.00
2023-05-19T04:36:25.969Z,6332.00
2023-05-19T04:37:26.008Z,6564.00
2023-05-19T04:38:25.984Z,6664.00
2023-05-19T04:39:25.999Z,6740.00
2023-05-19T04:40:26.072Z,7052.00
2023-05-19T04:41:26.075Z,7176.00
2023-05-19T04:42:26.130Z,6976.00
2023-05-19T04:43:26.160Z,7532.00
2023-05-19T04:44:26.195Z,7660.00
2023-05-19T04:45:26.172Z,7588.00
2023-05-19T04:46:26.273Z,7908.00
2023-05-19T04:47:26.309Z,8160.00
2023-05-19T04:48:26.235Z,8256.00
2023-05-19T04:49:26.279Z,8300.00
2023-05-19T04:50:26.269Z,8396.00
2023-05-19T04:51:26.328Z,8588.00
2023-05-19T04:52:26.398Z,8660.00
2023-05-19T04:53:26.421Z,8788.00
2023-05-19T04:54:26.513Z,8728.00
2023-05-19T04:55:26.530Z,8924.00
2023-05-19T04:56:26.660Z,9164.00
2023-05-19T04:57:26.723Z,9092.00
2023-05-19T04:58:26.579Z,9096.00
2023-05-19T04:59:26.646Z,9184.00
2023-05-19T05:00:26.691Z,9508.00
2023-05-19T05:01:26.864Z,9652.00
2023-05-19T05:02:26.758Z,9440.00
2023-05-19T05:03:26.936Z,9688.00
2023-05-19T05:04:26.947Z,9660.00
2023-05-19T05:05:26.958Z,9884.00
2023-05-19T05:06:26.884Z,10008.00
2023-05-19T05:07:26.933Z,10228.00
2023-05-19T05:08:26.875Z,10492.00
2023-05-19T05:09:26.913Z,10732.00
2023-05-19T05:10:26.889Z,11032.00
2023-05-19T05:11:27.030Z,11172.00
2023-05-19T05:12:27.002Z,11408.00
2023-05-19T05:13:26.999Z,11580.00
2023-05-19T05:14:27.054Z,11508.00
2023-05-19T05:15:27.049Z,11884.00
2023-05-19T05:16:27.251Z,12176.00
2023-05-19T05:17:27.205Z,12324.00
2023-05-19T05:18:27.144Z,12360.00
2023-05-19T05:19:27.279Z,12328.00
2023-05-19T05:20:27.143Z,12692.00
2023-05-19T05:21:27.186Z,12792.00
2023-05-19T05:22:27.246Z,12936.00
2023-05-19T05:23:27.245Z,13136.00
2023-05-19T05:24:27.316Z,13472.00
2023-05-19T05:25:27.320Z,13816.00
2023-05-19T05:26:27.394Z,14128.00
2023-05-19T05:27:27.399Z,34560.00
2023-05-19T05:28:27.416Z,59456.00
2023-05-19T05:29:27.427Z,60768.00
2023-05-19T05:30:27.620Z,60160.00
2023-05-19T05:31:27.464Z,57664.00
2023-05-19T05:32:27.533Z,58368.00
2023-05-19T05:33:27.659Z,58784.00
2023-05-19T05:34:27.480Z,59744.00
2023-05-19T05:35:27.554Z,61504.00
2023-05-19T05:36:27.591Z,63200.00
2023-05-19T05:37:27.620Z,66624.00
2023-05-19T05:38:27.808Z,65088.00
2023-05-19T05:39:27.647Z,64832.00
2023-05-19T05:40:27.682Z,66752.00
2023-05-19T05:41:27.693Z,65280.00
2023-05-19T05:42:29.702Z,68384.00
2023-05-19T05:43:27.762Z,67744.00
2023-05-19T05:44:27.768Z,67136.00
2023-05-19T05:45:27.810Z,69408.00
2023-05-19T05:46:27.954Z,73568.00
2023-05-19T05:47:27.897Z,71968.00
2023-05-19T05:48:27.890Z,71008.00
2023-05-19T05:49:27.909Z,73568.00
2023-05-19T05:50:27.938Z,74624.00
2023-05-19T05:51:27.962Z,74464.00
2023-05-19T05:52:27.979Z,72064.00
2023-05-19T05:53:28.000Z,72256.00
2023-05-19T05:54:28.042Z,76064.00
2023-05-19T05:55:28.043Z,76928.00
2023-05-19T05:56:28.094Z,74432.00
2023-05-19T05:57:28.126Z,72992.00
2023-05-19T05:58:28.188Z,76960.00
2023-05-19T05:59:28.252Z,75424.00
2023-05-19T06:00:28.296Z,75680.00
2023-05-19T06:01:28.285Z,77344.00
2023-05-19T06:02:28.407Z,75680.00
2023-05-19T06:03:28.397Z,72288.00
2023-05-19T06:04:28.331Z,73632.00
2023-05-19T06:05:28.433Z,77568.00
2023-05-19T06:06:28.401Z,76608.00
2023-05-19T06:07:28.434Z,76640.00
2023-05-19T06:08:28.515Z,75456.00
2023-05-19T06:09:28.487Z,70816.00
2023-05-19T06:10:28.504Z,71104.00
2023-05-19T06:11:28.535Z,75136.00
2023-05-19T06:12:28.549Z,72960.00
2023-05-19T06:13:28.570Z,74560.00
2023-05-19T06:14:28.586Z,78880.00
2023-05-19T06:15:28.609Z,77440.00
2023-05-19T06:16:28.662Z,72992.00
2023-05-19T06:17:28.712Z,71552.00
2023-05-19T06:18:28.695Z,77088.00
2023-05-19T06:19:28.828Z,84928.00
2023-05-19T06:20:28.744Z,84832.00
2023-05-19T06:21:28.738Z,79424.00
2023-05-19T06:22:28.787Z,80160.00
2023-05-19T06:23:28.829Z,77152.00
2023-05-19T06:24:28.835Z,75456.00
2023-05-19T06:25:28.864Z,79200.00
2023-05-19T06:26:28.913Z,81568.00
2023-05-19T06:27:28.940Z,81920.00
2023-05-19T06:28:28.961Z,84480.00
2023-05-19T06:29:29.008Z,86560.00
2023-05-19T06:30:29.058Z,81920.00
2023-05-19T06:31:29.126Z,82976.00
2023-05-19T06:32:29.127Z,84192.00
2023-05-19T06:33:29.434Z,82208.00
2023-05-19T06:34:29.119Z,82464.00
2023-05-19T06:35:29.159Z,80992.00
2023-05-19T06:36:29.202Z,77536.00
2023-05-19T06:37:29.217Z,79072.00
2023-05-19T06:38:29.200Z,83136.00
2023-05-19T06:39:29.281Z,75392.00
2023-05-19T06:40:29.421Z,75136.00
2023-05-19T06:41:29.365Z,78240.00
2023-05-19T06:42:29.390Z,75264.00
2023-05-19T06:43:29.405Z,76192.00
2023-05-19T06:44:29.422Z,77632.00
2023-05-19T06:45:29.453Z,77408.00
2023-05-19T06:46:29.498Z,82464.00
2023-05-19T06:47:29.597Z,80416.00
2023-05-19T06:48:29.579Z,86624.00
2023-05-19T06:49:29.578Z,81952.00
2023-05-19T06:50:29.626Z,76704.00
2023-05-19T06:51:29.628Z,82208.00
2023-05-19T06:52:29.642Z,78400.00
2023-05-19T06:53:29.667Z,69088.00
2023-05-19T06:54:29.717Z,75264.00
2023-05-19T06:55:29.729Z,72896.00
2023-05-19T06:56:29.773Z,75456.00
2023-05-19T06:57:29.807Z,83744.00
2023-05-19T06:58:29.812Z,85568.00
2023-05-19T06:59:29.839Z,75552.00
2023-05-19T07:00:29.836Z,71328.00
2023-05-19T07:01:29.900Z,79808.00
2023-05-19T07:02:30.048Z,80800.00
2023-05-19T07:03:30.056Z,80992.00
2023-05-19T07:04:29.957Z,70176.00
2023-05-19T07:05:29.976Z,72448.00
2023-05-19T07:06:30.026Z,76448.00
2023-05-19T07:07:30.057Z,76768.00
2023-05-19T07:08:30.103Z,80544.00
2023-05-19T07:09:30.109Z,71744.00
2023-05-19T07:10:30.218Z,63744.00
2023-05-19T07:11:30.196Z,70400.00
2023-05-19T07:12:30.233Z,76000.00
2023-05-19T07:13:30.246Z,83392.00
2023-05-19T07:14:30.245Z,89888.00
2023-05-19T07:15:30.261Z,88288.00
2023-05-19T07:16:30.318Z,81120.00
2023-05-19T07:17:30.368Z,83488.00
2023-05-19T07:18:30.376Z,82304.00
2023-05-19T07:19:30.484Z,77440.00
2023-05-19T07:20:30.667Z,84576.00
2023-05-19T07:21:30.475Z,83776.00
2023-05-19T07:22:30.480Z,77280.00
2023-05-19T07:23:30.507Z,86560.00
2023-05-19T07:24:30.593Z,81856.00
2023-05-19T07:25:30.572Z,86400.00
2023-05-19T07:26:30.578Z,79840.00
2023-05-19T07:27:30.606Z,80480.00
2023-05-19T07:28:30.695Z,79904.00
2023-05-19T07:29:30.693Z,78624.00
2023-05-19T07:30:30.923Z,87808.00
2023-05-19T07:31:30.776Z,79904.00
2023-05-19T07:32:30.857Z,81824.00
2023-05-19T07:33:30.853Z,81408.00
2023-05-19T07:34:30.869Z,90272.00
2023-05-19T07:35:30.898Z,89472.00
2023-05-19T07:36:30.912Z,85984.00
2023-05-19T07:37:30.941Z,81600.00
2023-05-19T07:38:30.956Z,85376.00
2023-05-19T07:39:30.978Z,87392.00
2023-05-19T07:40:31.238Z,89248.00
2023-05-19T07:41:31.055Z,87712.00
2023-05-19T07:42:31.060Z,90912.00
2023-05-19T07:43:31.105Z,89632.00
2023-05-19T07:44:31.101Z,85728.00
2023-05-19T07:45:31.151Z,90048.00
2023-05-19T07:46:31.224Z,81920.00
2023-05-19T07:47:31.297Z,84032.00
2023-05-19T07:48:31.208Z,85792.00
2023-05-19T07:49:31.226Z,80192.00
2023-05-19T07:50:31.418Z,85472.00
2023-05-19T07:51:31.258Z,81056.00
2023-05-19T07:52:31.274Z,81056.00
2023-05-19T07:53:31.289Z,88864.00
2023-05-19T07:54:31.297Z,81344.00
2023-05-19T07:55:31.315Z,84608.00
2023-05-19T07:56:31.364Z,87840.00
2023-05-19T07:57:31.366Z,82784.00
2023-05-19T07:58:31.434Z,88032.00
2023-05-19T07:59:31.428Z,82208.00
2023-05-19T08:00:31.676Z,83840.00
2023-05-19T08:01:31.517Z,82880.00
2023-05-19T08:02:31.638Z,80448.00
2023-05-19T08:03:31.693Z,84896.00
2023-05-19T08:04:31.609Z,76608.00
2023-05-19T08:05:31.576Z,86016.00
2023-05-19T08:06:31.610Z,88096.00
2023-05-19T08:07:31.624Z,78016.00
2023-05-19T08:08:31.602Z,85408.00
2023-05-19T08:09:31.629Z,81696.00
2023-05-19T08:10:31.874Z,83552.00
2023-05-19T08:11:31.673Z,83520.00
2023-05-19T08:12:31.718Z,78688.00
2023-05-19T08:13:31.740Z,85760.00
2023-05-19T08:14:31.769Z,79072.00
2023-05-19T08:15:31.839Z,81216.00
2023-05-19T08:16:31.890Z,81952.00
2023-05-19T08:17:31.900Z,81760.00
2023-05-19T08:18:31.875Z,87904.00
2023-05-19T08:19:31.900Z,86848.00
2023-05-19T08:20:32.060Z,88000.00
2023-05-19T08:21:31.959Z,83680.00
2023-05-19T08:22:31.989Z,79776.00
2023-05-19T08:23:32.049Z,78432.00
2023-05-19T08:24:32.077Z,80928.00
2023-05-19T08:25:32.103Z,79040.00
2023-05-19T08:26:32.114Z,79328.00
2023-05-19T08:27:32.181Z,79552.00
2023-05-19T08:28:32.202Z,80864.00
2023-05-19T08:29:32.200Z,75200.00
2023-05-19T08:30:32.375Z,75456.00
2023-05-19T08:31:32.336Z,78144.00
2023-05-19T08:32:32.417Z,78336.00
2023-05-19T08:33:32.435Z,80000.00
2023-05-19T08:34:32.453Z,77312.00
2023-05-19T08:35:32.479Z,76384.00
2023-05-19T08:36:32.483Z,72032.00
2023-05-19T08:37:34.100Z,43648.00
2023-05-19T08:38:32.538Z,20800.00
2023-05-19T08:39:32.525Z,34432.00
2023-05-19T08:40:32.789Z,48896.00
2023-05-19T08:41:32.568Z,71680.00
2023-05-19T08:42:32.592Z,75360.00
2023-05-19T08:43:32.647Z,78048.00
2023-05-19T08:44:32.667Z,72576.00
2023-05-19T08:45:32.893Z,70240.00
2023-05-19T08:46:32.751Z,72192.00
2023-05-19T08:47:32.746Z,17288.00
2023-05-19T08:48:32.752Z,74656.00
2023-05-19T08:49:32.763Z,70816.00
2023-05-19T08:50:33.088Z,72448.00
2023-05-19T08:51:32.813Z,18008.00
2023-05-19T08:52:32.794Z,64192.00
2023-05-19T08:53:34.528Z,17152.00
2023-05-19T08:54:32.799Z,22400.00
2023-05-19T08:55:33.111Z,71008.00
2023-05-19T08:56:32.920Z,69920.00
2023-05-19T08:57:32.970Z,70080.00
2023-05-19T08:58:32.962Z,68160.00
2023-05-19T08:59:32.996Z,66848.00
2023-05-19T09:00:33.309Z,69056.00
2023-05-19T09:01:33.145Z,67232.00
2023-05-19T09:02:33.149Z,67584.00
2023-05-19T09:03:33.286Z,69280.00
2023-05-19T09:04:33.318Z,68256.00
2023-05-19T09:05:33.558Z,66592.00
2023-05-19T09:06:33.211Z,65440.00
2023-05-19T09:07:33.231Z,64224.00
2023-05-19T09:08:33.297Z,64384.00
2023-05-19T09:09:33.371Z,65280.00
2023-05-19T09:10:33.360Z,63584.00
2023-05-19T09:11:33.379Z,63488.00
2023-05-19T09:12:33.425Z,66272.00
2023-05-19T09:13:33.466Z,66592.00
2023-05-19T09:14:33.521Z,63936.00
2023-05-19T09:15:33.877Z,63264.00
2023-05-19T09:16:33.577Z,62240.00
2023-05-19T09:17:33.712Z,63104.00
2023-05-19T09:18:33.649Z,62944.00
2023-05-19T09:19:33.732Z,63648.00
2023-05-19T09:20:33.655Z,62048.00
2023-05-19T09:21:33.765Z,62400.00
2023-05-19T09:22:33.738Z,60384.00
2023-05-19T09:23:33.691Z,59104.00
2023-05-19T09:24:34.413Z,32640.00
2023-05-19T09:25:33.871Z,21056.00
2023-05-19T09:26:33.734Z,18016.00
2023-05-19T09:27:33.726Z,64800.00
2023-05-19T09:32:51.709Z,61728.00
2023-05-19T09:33:51.778Z,19712.00
2023-05-19T09:34:51.744Z,17952.00
2023-05-19T09:35:51.734Z,15912.00
2023-05-19T09:36:51.812Z,17440.00
2023-05-19T09:37:51.791Z,16608.00
2023-05-19T09:38:51.844Z,17664.00
2023-05-19T09:39:51.834Z,18336.00
2023-05-19T09:40:51.846Z,20192.00
2023-05-19T09:41:51.886Z,26176.00
2023-05-19T09:42:51.914Z,16832.00
2023-05-19T09:43:52.001Z,16672.00
2023-05-19T09:44:52.039Z,17440.00
2023-05-19T09:45:52.075Z,17208.00
2023-05-19T09:46:52.077Z,18144.00
2023-05-19T09:47:52.133Z,55584.00
2023-05-19T09:48:52.149Z,54336.00
2023-05-19T09:49:52.155Z,20224.00
2023-05-19T09:50:52.212Z,15936.00
2023-05-19T09:51:52.226Z,16164.00
2023-05-19T09:52:52.263Z,17760.00
2023-05-19T09:53:52.271Z,51168.00
2023-05-19T09:54:52.307Z,17584.00
2023-05-19T09:55:52.361Z,17760.00
2023-05-19T09:56:52.386Z,21984.00
2023-05-19T09:57:52.382Z,33952.00
2023-05-19T09:58:52.448Z,48992.00
2023-05-19T09:59:52.507Z,17952.00
2023-05-19T10:00:52.517Z,17792.00
2023-05-19T10:01:52.621Z,16364.00
2023-05-19T10:02:52.605Z,15792.00
2023-05-19T10:03:52.567Z,39456.00
2023-05-19T10:04:52.598Z,17308.00
2023-05-19T10:05:52.611Z,16460.00
2023-05-19T10:06:52.648Z,42976.00
2023-05-19T10:07:52.711Z,17824.00
2023-05-19T10:08:52.744Z,17536.00
2023-05-19T10:09:52.731Z,25280.00
2023-05-19T10:10:52.723Z,22208.00
2023-05-19T10:11:52.797Z,18720.00
2023-05-19T10:12:52.798Z,22912.00
2023-05-19T10:13:52.872Z,37856.00
2023-05-19T10:14:52.880Z,19648.00
2023-05-19T10:15:58.760Z,19328.00
2023-05-19T10:16:52.947Z,19104.00
2023-05-19T10:17:52.977Z,38336.00
2023-05-19T10:18:53.024Z,20160.00
2023-05-19T10:19:52.995Z,18848.00
2023-05-19T10:20:53.017Z,20768.00
2023-05-19T10:21:53.045Z,19616.00
2023-05-19T10:22:53.108Z,19712.00
2023-05-19T10:23:53.152Z,20256.00
2023-05-19T10:24:53.217Z,27136.00
2023-05-19T10:25:53.229Z,22208.00
2023-05-19T10:26:53.268Z,28256.00
2023-05-19T10:27:53.295Z,28000.00
2023-05-19T10:28:53.345Z,31616.00
2023-05-19T10:29:53.351Z,30688.00
2023-05-19T10:30:53.401Z,30976.00
2023-05-19T10:31:53.493Z,30048.00
2023-05-19T10:32:53.517Z,15556.00
2023-05-19T10:33:53.529Z,15748.00
2023-05-19T10:34:53.602Z,16128.00
2023-05-19T10:35:53.595Z,16200.00
2023-05-19T10:36:53.609Z,16320.00
2023-05-19T10:37:53.643Z,26336.00
2023-05-19T10:38:53.643Z,18784.00
2023-05-19T10:39:53.631Z,24768.00
2023-05-19T10:40:53.661Z,24352.00
2023-05-19T10:41:53.676Z,24288.00
2023-05-19T10:42:53.661Z,23648.00
2023-05-19T10:43:53.704Z,23520.00
2023-05-19T10:44:53.723Z,23392.00
2023-05-19T10:45:53.746Z,22272.00
2023-05-19T10:46:55.742Z,21824.00
2023-05-19T10:47:53.909Z,22368.00
2023-05-19T10:48:53.885Z,22112.00
2023-05-19T10:49:53.929Z,21216.00
2023-05-19T10:50:53.915Z,22464.00
2023-05-19T10:51:53.997Z,21728.00
2023-05-19T10:52:54.003Z,22048.00
2023-05-19T10:53:54.077Z,21696.00
2023-05-19T10:54:54.114Z,20480.00
2023-05-19T10:55:54.115Z,20896.00
2023-05-19T10:56:54.118Z,17024.00
2023-05-19T10:57:54.206Z,17696.00
2023-05-19T10:58:54.243Z,17472.00
2023-05-19T10:59:54.209Z,18048.00
2023-05-19T11:00:54.255Z,17280.00
2023-05-19T11:01:54.274Z,16960.00
2023-05-19T11:02:54.287Z,17312.00
2023-05-19T11:03:54.342Z,17504.00
2023-05-19T11:04:54.314Z,17184.00
2023-05-19T11:05:54.291Z,16992.00
2023-05-19T11:06:54.352Z,16556.00
2023-05-19T11:07:54.356Z,16052.00
2023-05-19T11:08:54.361Z,15924.00
2023-05-19T11:09:54.381Z,15740.00
2023-05-19T11:10:54.424Z,15720.00
2023-05-19T11:11:54.487Z,15800.00
2023-05-19T11:12:54.489Z,15832.00
2023-05-19T11:13:54.542Z,15880.00
2023-05-19T11:14:54.538Z,16388.00
2023-05-19T11:15:54.536Z,16384.00
2023-05-19T11:16:54.573Z,16832.00
2023-05-19T11:17:54.613Z,17024.00
2023-05-19T11:18:54.632Z,17568.00
2023-05-19T11:19:54.686Z,16792.00
2023-05-19T11:20:54.694Z,16640.00
2023-05-19T11:21:54.728Z,13068.00
2023-05-19T11:22:54.757Z,16900.00
2023-05-19T11:23:54.870Z,16416.00
2023-05-19T11:24:54.789Z,17216.00
2023-05-19T11:25:54.857Z,17504.00
2023-05-19T11:26:54.884Z,17472.00
2023-05-19T11:27:54.910Z,16992.00
2023-05-19T11:28:55.049Z,16480.00
2023-05-19T11:29:55.007Z,16832.00
2023-05-19T11:30:55.031Z,16144.00
2023-05-19T11:31:55.052Z,16252.00
2023-05-19T11:32:55.044Z,16232.00
2023-05-19T11:33:54.979Z,16192.00
2023-05-19T11:34:55.052Z,15872.00
2023-05-19T11:35:55.043Z,15880.00
2023-05-19T11:36:55.027Z,16360.00
2023-05-19T11:37:55.116Z,16544.00
2023-05-19T11:38:55.100Z,16896.00
2023-05-19T11:39:55.140Z,17600.00
2023-05-19T11:40:55.186Z,16992.00
2023-05-19T11:41:55.213Z,16016.00
2023-05-19T11:42:55.239Z,15104.00
2023-05-19T11:43:55.328Z,10432.00
2023-05-19T11:44:55.315Z,10052.00
2023-05-19T11:45:55.447Z,14856.00
2023-05-19T11:46:55.536Z,15088.00
2023-05-19T11:48:02.110Z,15528.00
2023-05-19T11:48:55.435Z,15016.00
2023-05-19T11:49:55.452Z,15756.00
2023-05-19T11:50:55.488Z,15948.00
2023-05-19T11:51:55.510Z,16720.00
2023-05-19T11:52:55.524Z,16288.00
2023-05-19T11:53:55.579Z,16216.00
2023-05-19T11:54:55.607Z,16960.00
2023-05-19T11:55:55.655Z,17536.00
2023-05-19T11:56:55.657Z,17376.00
2023-05-19T11:58:03.087Z,16608.00
2023-05-19T11:58:55.676Z,16288.00
2023-05-19T11:59:55.708Z,11276.00
2023-05-19T12:00:55.812Z,9944.00
2023-05-19T12:01:55.786Z,9912.00
2023-05-19T12:02:55.950Z,9620.00
2023-05-19T12:03:55.996Z,9796.00
2023-05-19T12:04:55.900Z,12944.00
2023-05-19T12:05:55.992Z,14380.00
2023-05-19T12:06:55.895Z,13816.00
2023-05-19T12:07:55.972Z,13164.00
2023-05-19T12:08:55.994Z,13552.00
2023-05-19T12:09:56.062Z,15112.00
2023-05-19T12:10:56.048Z,15856.00
2023-05-19T12:11:56.104Z,16800.00
2023-05-19T12:12:56.174Z,17376.00
2023-05-19T12:13:56.192Z,17920.00
2023-05-19T12:14:56.242Z,17824.00
2023-05-19T12:15:56.295Z,17984.00
2023-05-19T12:16:56.325Z,17632.00
2023-05-19T12:17:56.327Z,17216.00
2023-05-19T12:18:56.315Z,16800.00
2023-05-19T12:19:56.300Z,10860.00
2023-05-19T12:20:56.343Z,9968.00
2023-05-19T12:21:56.413Z,9712.00
2023-05-19T12:22:56.440Z,9440.00
2023-05-19T12:23:56.521Z,9216.00
2023-05-19T12:24:56.535Z,9400.00
2023-05-19T12:25:56.544Z,9468.00
2023-05-19T12:26:56.576Z,9920.00